createdAt,value
2023-03-13T00:01:42.346Z,3.75
2023-03-13T00:04:44.956Z,3.75
2023-03-13T00:07:47.612Z,3.70
2023-03-13T00:10:50.258Z,3.78
2023-03-13T00:13:57.682Z,3.70
2023-03-13T00:17:01.247Z,3.68
2023-03-13T00:20:04.618Z,3.75
2023-03-13T00:23:07.260Z,3.77
2023-03-13T00:26:12.232Z,3.80
2023-03-13T00:29:14.839Z,4.00
2023-03-13T00:32:17.505Z,3.97
2023-03-13T00:35:20.161Z,4.03
2023-03-13T00:38:23.334Z,4.19
2023-03-13T00:41:30.528Z,4.07
2023-03-13T00:44:33.262Z,4.19
2023-03-13T00:47:35.897Z,4.18
2023-03-13T00:50:38.544Z,4.24
2023-03-13T00:53:41.420Z,4.22
2023-03-13T00:56:43.921Z,4.12
2023-03-13T00:59:46.452Z,4.02
2023-03-13T01:02:50.094Z,4.01
2023-03-13T01:06:00.450Z,4.01
2023-03-13T01:09:05.055Z,4.07
2023-03-13T01:12:07.961Z,4.15
2023-03-13T01:15:11.574Z,3.95
2023-03-13T01:18:15.555Z,3.81
2023-03-13T01:21:20.016Z,3.73
2023-03-13T01:24:24.635Z,3.70
2023-03-13T01:27:27.469Z,3.56
2023-03-13T01:30:30.123Z,3.59
2023-03-13T01:33:32.719Z,3.63
2023-03-13T01:36:38.061Z,3.41
2023-03-13T01:39:40.781Z,3.41
2023-03-13T01:42:58.304Z,3.12
2023-03-13T01:46:10.714Z,3.08
2023-03-13T01:49:36.078Z,2.95
2023-03-13T01:52:46.327Z,2.72
2023-03-13T01:55:57.740Z,2.55
2023-03-13T01:59:00.591Z,2.57
2023-03-13T02:02:04.864Z,2.55
2023-03-13T02:05:07.897Z,2.53
2023-03-13T02:08:32.089Z,2.55
2023-03-13T02:11:53.824Z,2.34
2023-03-13T02:14:58.399Z,2.23
2023-03-13T02:18:01.166Z,2.20
2023-03-13T02:21:35.608Z,1.95
2023-03-13T02:24:43.244Z,2.00
2023-03-13T02:27:47.226Z,1.75
2023-03-13T02:30:51.841Z,1.52
2023-03-13T02:33:55.535Z,1.31
2023-03-13T02:37:00.286Z,1.26
2023-03-13T02:40:09.597Z,1.21
2023-03-13T02:43:33.771Z,1.06
2023-03-13T02:46:52.792Z,0.74
2023-03-13T02:49:59.539Z,0.86
2023-03-13T02:53:05.620Z,0.74
2023-03-13T02:56:08.449Z,0.54
2023-03-13T02:59:11.776Z,0.42
2023-03-13T03:02:18.260Z,0.32
2023-03-13T03:05:22.325Z,0.18
2023-03-13T03:08:25.342Z,0.04
2023-03-13T03:11:28.020Z,0.20
2023-03-13T03:14:36.332Z,0.23
2023-03-13T03:17:39.464Z,0.15
2023-03-13T03:20:42.057Z,0.10
2023-03-13T03:23:44.709Z,0.06
2023-03-13T03:26:47.348Z,-0.05
2023-03-13T03:29:57.959Z,0.05
2023-03-13T03:33:03.248Z,-0.27
2023-03-13T03:36:08.896Z,-0.33
2023-03-13T03:39:11.874Z,-0.28
2023-03-13T03:42:15.267Z,-0.21
2023-03-13T03:45:17.932Z,-0.21
2023-03-13T03:48:20.672Z,-0.24
2023-03-13T03:51:23.792Z,-0.18
2023-03-13T03:54:26.509Z,-0.22
2023-03-13T03:57:29.442Z,-0.46
2023-03-13T04:00:32.524Z,-0.51
2023-03-13T04:03:35.384Z,-0.54
2023-03-13T04:06:38.208Z,-0.57
2023-03-13T04:09:42.316Z,-0.72
2023-03-13T04:12:49.816Z,-0.88
2023-03-13T04:15:52.617Z,-0.97
2023-03-13T04:18:55.899Z,-0.97
2023-03-13T04:22:01.047Z,-0.94
2023-03-13T04:25:03.826Z,-0.68
2023-03-13T04:28:09.042Z,-0.87
2023-03-13T04:31:16.873Z,-1.13
2023-03-13T04:34:38.087Z,-1.25
2023-03-13T04:37:43.661Z,-1.27
2023-03-13T04:41:09.507Z,-1.22
2023-03-13T04:44:12.258Z,-0.94
2023-03-13T04:47:40.920Z,-0.89
2023-03-13T04:51:06.662Z,-1.06
2023-03-13T04:54:29.784Z,-0.89
2023-03-13T04:57:44.408Z,-0.90
2023-03-13T05:01:07.283Z,-1.03
2023-03-13T05:04:28.318Z,-0.99
2023-03-13T05:07:49.696Z,-0.97
2023-03-13T05:11:15.504Z,-0.97
2023-03-13T05:14:42.517Z,-1.09
2023-03-13T05:17:58.201Z,-1.01
2023-03-13T05:21:12.614Z,-1.02
2023-03-13T05:24:32.005Z,-1.07
2023-03-13T05:27:49.328Z,-0.76
2023-03-13T05:31:21.371Z,-0.56
2023-03-13T05:34:23.926Z,-0.65
2023-03-13T05:37:49.304Z,-0.57
2023-03-13T05:40:51.866Z,-0.42
2023-03-13T05:44:28.903Z,-0.39
2023-03-13T05:48:02.810Z,-0.71
2023-03-13T05:51:21.884Z,-0.93
2023-03-13T05:54:44.396Z,-0.88
2023-03-13T05:58:05.524Z,-0.82
2023-03-13T06:01:25.940Z,-0.51
2023-03-13T06:04:47.110Z,-0.32
2023-03-13T06:07:50.689Z,-0.15
2023-03-13T06:10:53.373Z,-0.01
2023-03-13T06:13:55.989Z,0.09
2023-03-13T06:17:07.993Z,0.31
2023-03-13T06:20:11.757Z,0.46
2023-03-13T06:23:14.412Z,0.50
2023-03-13T06:26:17.197Z,0.73
2023-03-13T06:29:19.932Z,0.41
2023-03-13T06:32:23.042Z,0.80
2023-03-13T06:35:25.734Z,0.94
2023-03-13T06:38:28.795Z,1.07
2023-03-13T06:41:31.533Z,1.18
2023-03-13T06:44:37.642Z,1.44
2023-03-13T06:47:40.225Z,1.59
2023-03-13T06:50:43.430Z,1.58
2023-03-13T06:53:47.587Z,1.61
2023-03-13T06:56:50.725Z,1.99
2023-03-13T06:59:53.358Z,1.92
2023-03-13T07:02:56.048Z,2.19
2023-03-13T07:05:59.897Z,2.79
2023-03-13T07:09:02.565Z,2.63
2023-03-13T07:12:05.938Z,3.15
2023-03-13T07:15:08.878Z,3.11
2023-03-13T07:18:11.623Z,3.55
2023-03-13T07:21:14.771Z,3.71
2023-03-13T07:24:17.366Z,4.39
2023-03-13T07:27:21.368Z,4.64
2023-03-13T07:30:24.383Z,4.86
2023-03-13T07:33:27.187Z,5.21
2023-03-13T07:36:31.061Z,5.52
2023-03-13T07:39:33.852Z,5.63
2023-03-13T07:42:36.761Z,5.23
2023-03-13T07:45:39.831Z,5.82
2023-03-13T07:48:43.559Z,5.61
2023-03-13T07:51:48.327Z,5.90
2023-03-13T07:54:51.068Z,6.32
2023-03-13T07:57:53.670Z,6.74
2023-03-13T08:00:56.810Z,6.87
2023-03-13T08:04:02.162Z,7.20
2023-03-13T08:07:09.269Z,7.36
2023-03-13T08:10:11.873Z,7.51
2023-03-13T08:13:14.524Z,7.73
2023-03-13T08:16:25.378Z,7.76
2023-03-13T08:19:28.159Z,7.91
2023-03-13T08:22:30.723Z,7.76
2023-03-13T08:25:34.753Z,8.01
2023-03-13T08:28:38.381Z,8.52
2023-03-13T08:31:52.800Z,8.80
2023-03-13T08:34:55.456Z,8.80
2023-03-13T08:37:58.016Z,9.03
2023-03-13T08:41:00.725Z,9.08
2023-03-13T08:44:05.140Z,9.31
2023-03-13T08:47:08.866Z,9.48
2023-03-13T08:50:12.002Z,9.73
2023-03-13T08:53:14.672Z,9.88
2023-03-13T08:56:19.504Z,9.68
2023-03-13T08:59:25.346Z,10.21
2023-03-13T09:02:28.095Z,10.30
2023-03-13T09:05:30.631Z,10.40
2023-03-13T09:08:33.792Z,10.28
2023-03-13T09:11:38.137Z,10.52
2023-03-13T09:14:40.911Z,10.88
2023-03-13T09:17:43.436Z,10.72
2023-03-13T09:20:48.013Z,10.98
2023-03-13T09:23:51.991Z,11.10
2023-03-13T09:27:01.332Z,11.08
2023-03-13T09:30:05.227Z,11.32
2023-03-13T09:33:07.990Z,11.47
2023-03-13T09:36:11.814Z,11.69
2023-03-13T09:39:14.524Z,11.78
2023-03-13T09:42:20.779Z,11.83
2023-03-13T09:45:40.519Z,12.10
2023-03-13T09:48:49.432Z,12.35
2023-03-13T09:51:58.596Z,12.46
2023-03-13T09:55:24.629Z,12.47
2023-03-13T09:58:28.520Z,12.66
2023-03-13T10:01:32.262Z,12.66
2023-03-13T10:04:48.209Z,12.61
2023-03-13T10:07:51.457Z,12.80
2023-03-13T10:11:06.490Z,12.80
2023-03-13T10:14:29.107Z,12.98
2023-03-13T10:17:36.077Z,12.84
2023-03-13T10:20:39.994Z,13.05
2023-03-13T10:23:54.731Z,13.15
2023-03-13T10:26:58.901Z,13.24
2023-03-13T10:30:01.535Z,13.42
2023-03-13T10:33:06.905Z,13.43
2023-03-13T10:36:11.961Z,13.50
2023-03-13T10:39:25.933Z,13.54
2023-03-13T10:42:33.524Z,13.76
2023-03-13T10:45:37.811Z,13.70
2023-03-13T10:48:41.072Z,13.86
2023-03-13T10:51:50.194Z,13.88
2023-03-13T10:54:56.344Z,13.88
2023-03-13T10:58:01.913Z,13.92
2023-03-13T11:01:26.935Z,14.12
2023-03-13T11:04:37.707Z,14.08
2023-03-13T11:07:40.629Z,14.36
2023-03-13T11:10:57.288Z,14.66
2023-03-13T11:14:13.670Z,14.82
2023-03-13T11:17:34.945Z,15.02
2023-03-13T11:20:39.915Z,14.93
2023-03-13T11:23:47.931Z,14.80
2023-03-13T11:27:35.344Z,14.90
2023-03-13T11:31:09.107Z,15.11
2023-03-13T11:34:25.881Z,15.11
2023-03-13T11:37:31.775Z,15.32
2023-03-13T11:40:50.887Z,15.56
2023-03-13T11:44:08.405Z,15.73
2023-03-13T11:47:46.560Z,16.01
2023-03-13T11:51:04.939Z,15.99
2023-03-13T11:54:47.763Z,16.06
2023-03-13T11:58:23.639Z,16.52
2023-03-13T12:01:45.527Z,17.00
2023-03-13T12:04:57.495Z,17.12
2023-03-13T12:08:07.710Z,17.14
2023-03-13T12:11:10.227Z,16.97
2023-03-13T12:14:18.980Z,16.94
2023-03-13T12:17:40.431Z,17.04
2023-03-13T12:20:56.534Z,16.83
2023-03-13T12:24:13.571Z,16.54
2023-03-13T12:27:21.371Z,16.34
2023-03-13T12:30:41.297Z,16.10
2023-03-13T12:34:08.521Z,15.88
2023-03-13T12:37:24.733Z,15.82
2023-03-13T12:40:49.885Z,16.11
2023-03-13T12:44:07.808Z,16.35
2023-03-13T12:47:32.066Z,16.37
2023-03-13T12:50:59.587Z,16.57
2023-03-13T12:54:20.925Z,16.61
2023-03-13T12:58:02.529Z,16.57
2023-03-13T13:01:06.849Z,16.69
2023-03-13T13:04:31.008Z,16.69
2023-03-13T13:07:35.723Z,16.65
2023-03-13T13:10:41.629Z,16.94
2023-03-13T13:13:44.181Z,17.09
2023-03-13T13:17:04.042Z,17.42
2023-03-13T13:20:45.291Z,17.61
2023-03-13T13:23:48.344Z,17.42
2023-03-13T13:26:51.260Z,17.35
2023-03-13T13:29:55.581Z,17.73
2023-03-13T13:33:20.431Z,18.20
2023-03-13T13:36:27.945Z,17.97
2023-03-13T13:39:50.055Z,17.84
2023-03-13T13:42:57.420Z,17.67
2023-03-13T13:46:45.476Z,17.89
2023-03-13T13:49:56.963Z,17.65
2023-03-13T13:53:30.795Z,17.94
2023-03-13T13:56:57.967Z,18.14
2023-03-13T14:00:15.908Z,18.24
2023-03-13T14:03:30.836Z,18.16
2023-03-13T14:06:36.800Z,18.24
2023-03-13T14:09:57.719Z,17.78
2023-03-13T14:13:02.269Z,17.01
2023-03-13T14:16:25.784Z,16.81
2023-03-13T14:19:30.737Z,16.94
2023-03-13T14:22:48.870Z,17.71
2023-03-13T14:25:51.546Z,18.27
2023-03-13T14:29:03.021Z,18.61
2023-03-13T14:32:06.437Z,19.37
2023-03-13T14:35:11.902Z,19.46
2023-03-13T14:38:19.977Z,19.75
2023-03-13T14:41:37.555Z,20.13
2023-03-13T14:44:41.654Z,19.54
2023-03-13T14:47:44.200Z,19.96
2023-03-13T14:50:48.305Z,20.03
2023-03-13T14:53:59.153Z,19.91
2023-03-13T14:57:13.930Z,19.59
2023-03-13T15:00:35.741Z,18.46
2023-03-13T15:03:43.282Z,17.86
2023-03-13T15:06:45.888Z,18.37
2023-03-13T15:09:49.434Z,18.47
2023-03-13T15:12:52.568Z,18.78
2023-03-13T15:15:55.398Z,18.27
2023-03-13T15:18:58.130Z,19.00
2023-03-13T15:22:00.860Z,19.36
2023-03-13T15:25:07.450Z,20.01
2023-03-13T15:28:23.596Z,19.29
2023-03-13T15:31:28.597Z,18.77
2023-03-13T15:34:34.081Z,18.13
2023-03-13T15:37:37.222Z,17.95
2023-03-13T15:40:39.998Z,17.06
2023-03-13T15:43:42.628Z,16.39
2023-03-13T15:46:46.282Z,16.17
2023-03-13T15:49:49.109Z,15.87
2023-03-13T15:52:51.824Z,15.78
2023-03-13T15:55:55.872Z,15.84
2023-03-13T15:58:58.495Z,15.84
2023-03-13T16:02:01.084Z,15.72
2023-03-13T16:05:04.744Z,15.53
2023-03-13T16:08:07.422Z,15.32
2023-03-13T16:11:12.639Z,15.14
2023-03-13T16:14:15.348Z,14.83
2023-03-13T16:17:19.584Z,14.80
2023-03-13T16:20:23.779Z,14.73
2023-03-13T16:23:26.425Z,14.69
2023-03-13T16:26:31.196Z,14.65
2023-03-13T16:29:33.807Z,14.59
2023-03-13T16:32:36.561Z,14.33
2023-03-13T16:35:39.723Z,13.90
2023-03-13T16:38:42.352Z,13.62
2023-03-13T16:41:44.937Z,13.27
2023-03-13T16:44:47.638Z,12.97
2023-03-13T16:47:50.365Z,12.76
2023-03-13T16:50:52.986Z,12.51
2023-03-13T16:53:57.033Z,12.45
2023-03-13T16:57:00.492Z,12.32
2023-03-13T17:00:07.490Z,12.19
2023-03-13T17:03:10.240Z,11.95
2023-03-13T17:06:21.680Z,11.86
2023-03-13T17:09:24.309Z,11.81
2023-03-13T17:12:26.949Z,11.64
2023-03-13T17:15:29.660Z,11.69
2023-03-13T17:18:32.334Z,11.44
2023-03-13T17:21:36.728Z,11.33
2023-03-13T17:24:39.620Z,11.17
2023-03-13T17:27:43.016Z,11.00
2023-03-13T17:30:45.821Z,11.00
2023-03-13T17:33:48.931Z,10.81
2023-03-13T17:36:51.509Z,10.57
2023-03-13T17:39:54.124Z,10.49
2023-03-13T17:42:57.697Z,10.28
2023-03-13T17:46:00.730Z,10.29
2023-03-13T17:49:03.486Z,10.22
2023-03-13T17:52:06.323Z,10.17
2023-03-13T17:55:09.714Z,10.20
2023-03-13T17:58:12.584Z,10.16
2023-03-13T18:01:15.379Z,10.18
2023-03-13T18:04:18.063Z,10.10
2023-03-13T18:07:28.805Z,10.01
2023-03-13T18:10:31.379Z,9.86
2023-03-13T18:13:34.416Z,9.76
2023-03-13T18:16:47.933Z,9.80
2023-03-13T18:19:50.974Z,9.79
2023-03-13T18:22:54.258Z,9.71
2023-03-13T18:25:58.394Z,9.53
2023-03-13T18:29:02.062Z,9.67
2023-03-13T18:32:04.983Z,9.55
2023-03-13T18:35:08.010Z,9.52
2023-03-13T18:38:13.981Z,9.63
2023-03-13T18:41:17.823Z,9.44
2023-03-13T18:44:21.153Z,9.34
2023-03-13T18:47:27.367Z,9.47
2023-03-13T18:50:32.631Z,9.41
2023-03-13T18:53:36.489Z,9.52
2023-03-13T18:56:39.681Z,9.55
2023-03-13T18:59:43.445Z,9.51
2023-03-13T19:02:46.833Z,9.50
2023-03-13T19:05:49.659Z,9.48
2023-03-13T19:09:00.420Z,9.48
2023-03-13T19:12:03.408Z,9.44
2023-03-13T19:15:07.184Z,9.46
2023-03-13T19:18:11.492Z,9.55
2023-03-13T19:21:43.867Z,9.54
2023-03-13T19:24:46.520Z,9.39
2023-03-13T19:27:49.280Z,9.43
2023-03-13T19:30:51.789Z,9.28
2023-03-13T19:33:55.004Z,9.31
2023-03-13T19:36:57.810Z,9.29
2023-03-13T19:40:00.747Z,9.15
2023-03-13T19:43:03.865Z,9.26
2023-03-13T19:46:29.008Z,9.13
2023-03-13T19:49:31.823Z,8.98
2023-03-13T19:52:34.631Z,9.04
2023-03-13T19:55:37.422Z,8.98
2023-03-13T19:58:40.258Z,8.76
2023-03-13T20:01:44.028Z,8.77
2023-03-13T20:04:46.927Z,8.70
2023-03-13T20:07:49.757Z,8.58
2023-03-13T20:10:52.628Z,8.54
2023-03-13T20:13:56.306Z,8.48
2023-03-13T20:16:59.068Z,8.33
2023-03-13T20:20:01.892Z,8.24
2023-03-13T20:23:04.750Z,8.10
2023-03-13T20:26:09.967Z,8.14
2023-03-13T20:29:12.845Z,8.29
2023-03-13T20:32:15.659Z,8.21
2023-03-13T20:35:18.392Z,8.22
2023-03-13T20:38:20.979Z,8.12
2023-03-13T20:41:27.402Z,8.15
2023-03-13T20:44:30.076Z,8.00
2023-03-13T20:47:32.963Z,7.72
2023-03-13T20:50:35.778Z,7.74
2023-03-13T20:53:40.309Z,7.71
2023-03-13T20:56:43.013Z,7.63
2023-03-13T20:59:46.337Z,7.53
2023-03-13T21:02:49.464Z,7.64
2023-03-13T21:05:52.217Z,7.80
2023-03-13T21:08:54.958Z,7.85
2023-03-13T21:11:58.045Z,7.82
2023-03-13T21:15:00.763Z,7.75
2023-03-13T21:18:04.105Z,7.73
2023-03-13T21:21:09.512Z,7.53
2023-03-13T21:24:12.165Z,7.42
2023-03-13T21:27:15.283Z,7.26
2023-03-13T21:30:20.217Z,7.03
2023-03-13T21:33:23.015Z,6.94
2023-03-13T21:36:25.797Z,6.92
2023-03-13T21:39:28.579Z,6.80
2023-03-13T21:42:31.178Z,6.94
2023-03-13T21:45:34.809Z,6.94
2023-03-13T21:48:39.158Z,6.95
2023-03-13T21:51:42.170Z,7.04
2023-03-13T21:54:45.147Z,7.14
2023-03-13T21:57:47.747Z,7.10
2023-03-13T22:00:55.270Z,7.14
2023-03-13T22:03:57.976Z,7.13
2023-03-13T22:07:00.582Z,7.18
2023-03-13T22:10:03.352Z,7.30
2023-03-13T22:13:07.811Z,7.27
2023-03-13T22:16:11.610Z,7.44
2023-03-13T22:19:14.330Z,7.40
2023-03-13T22:22:17.468Z,7.57
2023-03-13T22:25:20.102Z,7.36
2023-03-13T22:28:23.375Z,7.13
2023-03-13T22:31:26.372Z,7.20
2023-03-13T22:34:29.598Z,7.10
2023-03-13T22:37:32.177Z,7.19
2023-03-13T22:40:34.755Z,7.39
2023-03-13T22:43:37.366Z,7.49
2023-03-13T22:46:39.918Z,7.49
2023-03-13T22:49:42.532Z,7.54
2023-03-13T22:52:45.150Z,7.58
2023-03-13T22:55:47.776Z,8.03
2023-03-13T22:58:50.527Z,8.43
2023-03-13T23:01:53.159Z,8.73
2023-03-13T23:04:57.942Z,8.81
2023-03-13T23:08:00.549Z,8.91
2023-03-13T23:11:03.832Z,8.65
2023-03-13T23:14:06.373Z,8.57
2023-03-13T23:17:09.148Z,8.50
2023-03-13T23:20:13.438Z,8.24
2023-03-13T23:23:16.099Z,8.17
2023-03-13T23:26:18.855Z,8.36
2023-03-13T23:29:21.470Z,8.71
2023-03-13T23:32:24.210Z,8.79
2023-03-13T23:35:26.802Z,8.87
2023-03-13T23:38:29.327Z,8.91
2023-03-13T23:41:32.693Z,9.10
2023-03-13T23:44:35.363Z,9.32
2023-03-13T23:47:37.909Z,9.34
2023-03-13T23:50:41.045Z,9.39
2023-03-13T23:53:44.333Z,9.42
2023-03-13T23:56:46.943Z,9.44
2023-03-13T23:59:49.663Z,9.45
